Time;durP1;ratioP1;P1;durP2;ratioP2;P2;SDS_P1;SDS_P2;PMS_P1;PMS_P2;Temp;Humidity;BMP_temperature;BMP_pressure;BME280_temperature;BME280_humidity;BME280_pressure;Samples;Min_cycle;Max_cycle;Signal;HPM_P1;HPM_P2
2023/06/04 00:01:07;;;;;;;0.30;0.30;;;20.90;55.40;;;;;;5075706;28;20198;-82
2023/06/04 00:03:44;;;;;;;0.38;0.38;;;20.90;55.30;;;;;;5079999;28;20637;-83
2023/06/04 00:06:14;;;;;;;3.13;1.17;;;20.90;55.30;;;;;;5076957;28;20205;-81
2023/06/04 00:08:42;;;;;;;1.95;0.52;;;20.90;55.50;;;;;;5077530;28;20191;-82
2023/06/04 00:11:11;;;;;;;0.68;0.60;;;20.90;55.70;;;;;;5077321;28;20193;-81
2023/06/04 00:13:39;;;;;;;0.80;0.40;;;20.90;55.70;;;;;;5077151;28;20217;-82
2023/06/04 00:16:07;;;;;;;0.30;0.30;;;20.90;55.50;;;;;;5090189;28;20281;-83
2023/06/04 00:18:36;;;;;;;0.25;0.25;;;20.90;55.30;;;;;;5089003;28;20213;-82
2023/06/04 00:21:04;;;;;;;1.98;0.50;;;20.90;55.20;;;;;;5077827;28;20191;-82
2023/06/04 00:23:35;;;;;;;0.20;0.20;;;20.90;55.30;;;;;;5080072;28;20201;-82
2023/06/04 00:26:04;;;;;;;0.30;0.30;;;20.90;55.30;;;;;;5102596;28;20196;-83
2023/06/04 00:28:32;;;;;;;2.83;0.43;;;20.90;55.40;;;;;;5085291;28;20200;-82
2023/06/04 00:31:01;;;;;;;0.50;0.38;;;20.80;55.20;;;;;;5087571;28;20237;-81
2023/06/04 00:33:29;;;;;;;0.20;0.20;;;20.70;55.10;;;;;;5093617;28;20250;-82
2023/06/04 00:35:58;;;;;;;0.30;0.30;;;20.70;55.20;;;;;;5083044;28;20191;-83
2023/06/04 00:38:27;;;;;;;1.83;0.82;;;20.70;55.40;;;;;;5089553;28;20682;-83
2023/06/04 00:40:56;;;;;;;0.40;0.40;;;20.70;55.20;;;;;;5087926;28;20194;-83
2023/06/04 00:43:26;;;;;;;0.40;0.40;;;20.70;55.40;;;;;;5079054;28;20197;-82
2023/06/04 00:45:55;;;;;;;0.47;0.30;;;20.70;55.40;;;;;;5071905;28;20213;-82
2023/06/04 00:48:27;;;;;;;1.20;0.70;;;20.60;55.40;;;;;;5078781;28;20557;-83
2023/06/04 00:50:55;;;;;;;0.60;0.43;;;20.60;55.70;;;;;;5080412;28;20291;-83
2023/06/04 00:53:25;;;;;;;0.68;0.50;;;20.60;55.90;;;;;;5080893;28;20654;-82
2023/06/04 00:55:53;;;;;;;1.65;0.45;;;20.60;55.80;;;;;;5081093;28;20289;-82
2023/06/04 00:58:24;;;;;;;1.30;0.50;;;20.60;55.90;;;;;;5090210;28;20214;-82
2023/06/04 01:00:56;;;;;;;0.20;0.20;;;20.60;56.00;;;;;;5084296;28;20597;-82
2023/06/04 01:03:31;;;;;;;0.38;0.38;;;20.50;56.10;;;;;;5090701;28;20217;-82
2023/06/04 01:06:09;;;;;;;0.45;0.40;;;20.60;56.30;;;;;;5085997;28;20183;-82
2023/06/04 01:08:38;;;;;;;0.30;0.30;;;20.50;56.20;;;;;;5093248;28;20190;-81
2023/06/04 01:11:06;;;;;;;0.63;0.38;;;20.40;56.00;;;;;;5082596;28;20191;-82
2023/06/04 01:13:36;;;;;;;0.95;0.68;;;20.50;56.20;;;;;;5095344;28;20201;-82
2023/06/04 01:16:05;;;;;;;1.35;0.88;;;20.40;56.10;;;;;;5081156;28;20197;-82
2023/06/04 01:18:36;;;;;;;0.40;0.40;;;20.40;56.30;;;;;;5092421;28;20274;-82
2023/06/04 01:21:09;;;;;;;0.30;0.30;;;20.40;56.30;;;;;;5077762;28;20240;-82
2023/06/04 01:23:58;;;;;;;0.30;0.30;;;20.40;56.00;;;;;;5083959;28;20189;-82
2023/06/04 01:26:28;;;;;;;0.57;0.57;;;20.30;56.10;;;;;;5080555;28;20197;-82
2023/06/04 01:28:59;;;;;;;0.30;0.30;;;20.40;56.20;;;;;;5082007;28;20201;-82
2023/06/04 01:31:32;;;;;;;0.55;0.30;;;20.40;56.00;;;;;;5072834;28;20268;-82
2023/06/04 01:34:01;;;;;;;0.28;0.25;;;20.30;55.90;;;;;;5097634;28;20242;-79
2023/06/04 01:36:30;;;;;;;0.40;0.40;;;20.30;55.90;;;;;;5092424;28;20204;-81
2023/06/04 01:39:00;;;;;;;0.90;0.50;;;20.30;55.90;;;;;;5083782;28;20580;-81
2023/06/04 01:41:28;;;;;;;0.73;0.70;;;20.30;56.00;;;;;;5081405;28;20628;-83
2023/06/04 01:43:58;;;;;;;1.00;0.55;;;20.30;56.10;;;;;;5078915;28;20190;-81
2023/06/04 01:46:27;;;;;;;0.52;0.50;;;20.40;56.10;;;;;;5084959;28;20198;-82
2023/06/04 01:48:55;;;;;;;0.30;0.30;;;20.40;55.90;;;;;;5084258;28;20202;-82
2023/06/04 01:51:23;;;;;;;0.35;0.32;;;20.40;55.60;;;;;;5077920;27;20198;-82
2023/06/04 01:53:52;;;;;;;0.43;0.43;;;20.30;55.30;;;;;;5070138;28;20186;-81
2023/06/04 01:56:21;;;;;;;0.30;0.30;;;20.40;55.40;;;;;;5079608;28;20657;-82
2023/06/04 01:58:49;;;;;;;0.57;0.50;;;20.30;55.20;;;;;;5082785;28;20230;-82
2023/06/04 02:01:19;;;;;;;0.20;0.20;;;20.30;54.90;;;;;;5085496;28;20201;-83
2023/06/04 02:03:48;;;;;;;0.20;0.20;;;20.30;55.00;;;;;;5079483;28;20205;-82
2023/06/04 02:06:16;;;;;;;0.40;0.40;;;20.40;55.10;;;;;;5077191;28;20199;-81
2023/06/04 02:08:45;;;;;;;0.98;0.40;;;20.40;55.10;;;;;;5078074;28;20193;-82
2023/06/04 02:11:13;;;;;;;1.40;0.63;;;20.30;54.40;;;;;;5077064;28;20282;-82
2023/06/04 02:13:42;;;;;;;0.68;0.40;;;20.30;54.90;;;;;;5079520;28;20650;-82
2023/06/04 02:16:11;;;;;;;0.40;0.40;;;20.20;54.60;;;;;;5086539;28;20193;-82
2023/06/04 02:18:41;;;;;;;0.30;0.30;;;20.20;54.20;;;;;;5076408;28;20573;-81
2023/06/04 02:21:09;;;;;;;0.30;0.30;;;20.30;54.50;;;;;;5077863;28;20240;-83
2023/06/04 02:23:38;;;;;;;0.20;0.20;;;20.20;54.30;;;;;;5073167;28;20200;-82
2023/06/04 02:26:06;;;;;;;0.33;0.33;;;20.20;54.30;;;;;;5080077;28;20669;-81
2023/06/04 02:28:34;;;;;;;1.85;0.40;;;20.30;54.50;;;;;;5075979;28;20215;-81
2023/06/04 02:31:03;;;;;;;0.20;0.20;;;20.30;54.60;;;;;;5086205;28;20556;-81
2023/06/04 02:33:31;;;;;;;0.37;0.37;;;20.30;54.60;;;;;;5090320;28;20193;-82
2023/06/04 02:36:01;;;;;;;6.57;0.83;;;20.30;54.40;;;;;;5079677;28;20234;-81
2023/06/04 02:38:30;;;;;;;0.38;0.38;;;20.20;54.30;;;;;;5091501;28;20213;-82
2023/06/04 02:40:58;;;;;;;0.30;0.30;;;20.20;54.30;;;;;;5076878;28;20197;-81
2023/06/04 02:43:27;;;;;;;0.65;0.52;;;20.20;54.00;;;;;;5081314;28;20669;-84
2023/06/04 02:45:55;;;;;;;0.80;0.38;;;20.30;54.20;;;;;;5083186;28;20193;-82
2023/06/04 02:48:23;;;;;;;5.55;0.32;;;20.20;53.80;;;;;;5076930;28;20194;-82
2023/06/04 02:50:52;;;;;;;0.52;0.30;;;20.20;54.10;;;;;;5074561;28;20200;-82
2023/06/04 02:53:23;;;;;;;1.35;0.70;;;20.20;54.20;;;;;;5078111;28;20201;-82
2023/06/04 02:55:52;;;;;;;2.67;0.67;;;20.20;54.10;;;;;;5078149;28;20186;-83
2023/06/04 02:58:21;;;;;;;0.45;0.45;;;20.20;53.90;;;;;;5080209;28;20676;-82
2023/06/04 03:00:50;;;;;;;0.40;0.40;;;20.10;53.80;;;;;;5078658;28;20193;-81
2023/06/04 03:03:18;;;;;;;0.20;0.20;;;20.20;54.00;;;;;;5077656;28;20197;-81
2023/06/04 03:05:46;;;;;;;6.22;0.85;;;20.20;54.00;;;;;;5079395;28;20233;-81
2023/06/04 03:08:15;;;;;;;0.30;0.30;;;20.20;53.90;;;;;;5073139;28;20194;-81
2023/06/04 03:10:45;;;;;;;0.70;0.70;;;20.20;53.90;;;;;;5084325;28;20195;-82
2023/06/04 03:13:13;;;;;;;1.85;1.05;;;20.20;54.10;;;;;;5076670;28;20212;-80
2023/06/04 03:15:41;;;;;;;0.20;0.20;;;20.20;53.90;;;;;;5073529;28;20202;-81
2023/06/04 03:18:11;;;;;;;0.47;0.47;;;20.20;53.80;;;;;;5070964;28;20198;-80
2023/06/04 03:20:39;;;;;;;0.20;0.20;;;20.10;53.70;;;;;;5072433;28;20554;-80
2023/06/04 03:23:08;;;;;;;0.30;0.30;;;20.10;53.70;;;;;;5076728;28;20222;-81
2023/06/04 03:25:36;;;;;;;3.92;0.80;;;20.00;53.80;;;;;;5088103;28;20216;-82
2023/06/04 03:28:06;;;;;;;0.33;0.33;;;20.00;53.80;;;;;;5081934;28;20198;-82
2023/06/04 03:30:34;;;;;;;1.10;0.55;;;20.00;54.20;;;;;;5085980;28;20606;-83
2023/06/04 03:33:03;;;;;;;0.57;0.57;;;20.00;54.20;;;;;;5079792;28;20735;-82
2023/06/04 03:35:31;;;;;;;0.37;0.37;;;19.90;53.90;;;;;;5096881;28;20284;-81
2023/06/04 03:38:00;;;;;;;0.20;0.20;;;19.90;54.10;;;;;;5081023;28;20194;-82
2023/06/04 03:40:28;;;;;;;0.30;0.30;;;19.90;53.90;;;;;;5087110;28;20614;-82
2023/06/04 03:42:56;;;;;;;0.30;0.30;;;19.90;54.00;;;;;;5082596;28;20197;-82
2023/06/04 03:45:26;;;;;;;0.30;0.30;;;20.00;54.30;;;;;;5087134;28;20198;-82
2023/06/04 03:47:55;;;;;;;0.28;0.28;;;19.90;54.00;;;;;;5077258;28;20190;-82
2023/06/04 03:50:23;;;;;;;0.63;0.30;;;19.90;54.10;;;;;;5085072;28;20193;-82
2023/06/04 03:52:52;;;;;;;0.50;0.50;;;19.90;54.30;;;;;;5094193;28;20199;-82
2023/06/04 03:55:20;;;;;;;0.20;0.20;;;19.90;54.40;;;;;;5080398;28;20277;-82
2023/06/04 03:57:49;;;;;;;1.03;0.63;;;19.90;54.40;;;;;;5078057;28;20251;-83
2023/06/04 04:00:17;;;;;;;0.20;0.20;;;19.90;54.60;;;;;;5080433;28;20286;-81
2023/06/04 04:02:47;;;;;;;1.10;0.40;;;20.00;55.00;;;;;;5083311;28;20193;-83
2023/06/04 04:05:15;;;;;;;0.30;0.30;;;19.90;54.60;;;;;;5089610;28;20289;-82
2023/06/04 04:07:44;;;;;;;0.50;0.50;;;19.90;54.70;;;;;;5074733;28;20205;-83
2023/06/04 04:10:14;;;;;;;1.07;0.83;;;19.90;54.70;;;;;;5084437;28;20198;-82
2023/06/04 04:12:42;;;;;;;0.80;0.80;;;19.90;54.80;;;;;;5075341;28;20194;-82
2023/06/04 04:15:11;;;;;;;0.40;0.40;;;19.90;55.00;;;;;;5084112;28;20209;-82
2023/06/04 04:17:39;;;;;;;0.33;0.33;;;19.90;55.10;;;;;;5075329;28;20605;-82
2023/06/04 04:20:10;;;;;;;0.20;0.20;;;19.90;55.00;;;;;;5075568;28;20222;-82
2023/06/04 04:22:41;;;;;;;1.63;0.80;;;19.80;55.20;;;;;;5082105;28;20217;-83
2023/06/04 04:25:10;;;;;;;0.63;0.43;;;19.90;55.30;;;;;;5075445;28;20222;-82
2023/06/04 04:27:40;;;;;;;1.83;0.57;;;19.90;55.30;;;;;;5079253;28;20190;-82
2023/06/04 04:30:10;;;;;;;0.63;0.53;;;19.90;55.20;;;;;;5082908;28;20296;-82
2023/06/04 04:32:38;;;;;;;0.40;0.40;;;19.90;55.10;;;;;;5087620;28;20197;-81
2023/06/04 04:35:09;;;;;;;0.30;0.30;;;19.90;55.40;;;;;;5087412;28;20219;-81
2023/06/04 04:37:38;;;;;;;0.20;0.20;;;19.90;55.40;;;;;;5087487;28;20198;-81
2023/06/04 04:40:11;;;;;;;0.77;0.30;;;19.90;55.50;;;;;;5075843;28;20226;-82
2023/06/04 04:42:41;;;;;;;0.93;0.50;;;19.90;55.30;;;;;;5078315;28;20190;-82
2023/06/04 04:45:10;;;;;;;1.23;1.13;;;20.00;55.50;;;;;;5076601;28;20191;-82
2023/06/04 04:47:39;;;;;;;0.20;0.20;;;19.90;55.40;;;;;;5082753;28;20290;-82
2023/06/04 04:50:09;;;;;;;0.30;0.30;;;19.90;55.20;;;;;;5082673;28;20213;-81
2023/06/04 04:52:37;;;;;;;0.47;0.30;;;19.90;56.10;;;;;;5083945;28;20278;-83
2023/06/04 04:55:07;;;;;;;0.50;0.50;;;19.90;55.30;;;;;;5079130;28;20195;-82
2023/06/04 04:57:35;;;;;;;0.20;0.20;;;19.80;55.40;;;;;;5081186;28;20666;-83
2023/06/04 05:00:05;;;;;;;0.30;0.30;;;19.90;55.70;;;;;;5080705;28;20217;-82
2023/06/04 05:02:33;;;;;;;0.20;0.20;;;19.90;55.80;;;;;;5078434;28;20201;-82
2023/06/04 05:05:01;;;;;;;0.47;0.30;;;19.90;55.90;;;;;;5078399;28;20273;-83
2023/06/04 05:07:31;;;;;;;0.23;0.23;;;19.90;55.70;;;;;;5078291;28;20583;-83
2023/06/04 05:10:00;;;;;;;0.50;0.40;;;20.00;55.90;;;;;;5071973;28;20194;-80
2023/06/04 05:12:31;;;;;;;0.57;0.40;;;19.90;55.20;;;;;;5091800;28;20205;-83
2023/06/04 05:14:59;;;;;;;0.63;0.63;;;19.90;55.40;;;;;;5080740;28;20200;-83
2023/06/04 05:17:29;;;;;;;0.83;0.60;;;19.90;55.50;;;;;;5090687;28;20205;-83
2023/06/04 05:20:11;;;;;;;0.20;0.20;;;19.90;55.60;;;;;;5072112;28;20271;-81
2023/06/04 05:22:42;;;;;;;1.45;0.40;;;19.90;55.60;;;;;;5076288;28;20236;-82
2023/06/04 05:25:10;;;;;;;0.40;0.40;;;19.90;55.50;;;;;;5085654;28;20198;-82
2023/06/04 05:27:40;;;;;;;0.40;0.30;;;20.00;55.70;;;;;;5079173;28;20241;-83
2023/06/04 05:30:09;;;;;;;0.40;0.40;;;20.00;55.70;;;;;;5079140;27;20197;-83
2023/06/04 05:32:40;;;;;;;0.32;0.32;;;20.00;55.60;;;;;;5078434;28;20213;-82
2023/06/04 05:35:10;;;;;;;0.68;0.40;;;20.00;55.80;;;;;;5082565;28;20190;-82
2023/06/04 05:37:41;;;;;;;0.30;0.30;;;20.10;56.00;;;;;;5080656;28;20294;-82
2023/06/04 05:40:12;;;;;;;0.22;0.20;;;20.10;55.90;;;;;;5080863;28;20242;-82
2023/06/04 05:42:42;;;;;;;0.50;0.40;;;20.20;55.90;;;;;;5083724;28;20678;-82
2023/06/04 05:45:11;;;;;;;0.30;0.30;;;20.30;56.40;;;;;;5087265;28;20198;-83
2023/06/04 05:47:40;;;;;;;0.30;0.30;;;20.40;56.10;;;;;;5078569;28;20201;-81
2023/06/04 05:50:09;;;;;;;0.43;0.40;;;20.50;56.20;;;;;;5088575;28;20565;-82
2023/06/04 05:52:37;;;;;;;1.02;0.50;;;20.60;56.40;;;;;;5078727;28;20263;-82
2023/06/04 05:55:07;;;;;;;0.93;0.73;;;20.70;56.50;;;;;;5080921;28;20206;-81
2023/06/04 05:57:37;;;;;;;5.47;0.63;;;20.70;56.10;;;;;;5073703;28;20195;-80
2023/06/04 06:00:10;;;;;;;1.63;0.63;;;20.70;56.00;;;;;;5093543;28;20223;-83
2023/06/04 06:02:39;;;;;;;0.40;0.40;;;20.80;56.30;;;;;;5085816;28;20209;-82
2023/06/04 06:05:08;;;;;;;0.50;0.43;;;20.80;56.50;;;;;;5088864;28;20302;-83
2023/06/04 06:07:36;;;;;;;0.63;0.52;;;20.90;56.40;;;;;;5082776;28;20198;-83
2023/06/04 06:10:06;;;;;;;0.55;0.50;;;21.00;56.30;;;;;;5083079;28;20281;-83
2023/06/04 06:12:35;;;;;;;0.40;0.40;;;21.00;56.40;;;;;;5071959;28;20240;-82
2023/06/04 06:15:06;;;;;;;0.35;0.35;;;21.10;56.40;;;;;;5071297;28;20194;-82
2023/06/04 06:17:35;;;;;;;0.40;0.40;;;21.20;56.50;;;;;;5083507;28;20278;-80
2023/06/04 06:20:05;;;;;;;1.25;0.50;;;21.30;56.20;;;;;;5082863;28;20218;-82
2023/06/04 06:22:34;;;;;;;0.40;0.40;;;21.30;56.20;;;;;;5074775;28;20236;-82
2023/06/04 06:25:05;;;;;;;1.77;0.63;;;21.40;56.40;;;;;;5083531;28;20391;-81
2023/06/04 06:27:33;;;;;;;0.20;0.20;;;21.40;56.40;;;;;;5075356;28;20198;-82
2023/06/04 06:30:01;;;;;;;0.95;0.30;;;21.40;56.30;;;;;;5081004;28;20854;-84
2023/06/04 06:32:31;;;;;;;0.57;0.47;;;21.50;56.20;;;;;;5078630;28;20251;-83
2023/06/04 06:35:00;;;;;;;0.30;0.30;;;21.60;56.40;;;;;;5080224;28;20191;-83
2023/06/04 06:37:28;;;;;;;0.35;0.35;;;21.60;56.30;;;;;;5077375;28;20296;-82
2023/06/04 06:39:57;;;;;;;0.40;0.40;;;21.70;56.40;;;;;;5083206;28;20287;-83
2023/06/04 06:42:25;;;;;;;0.30;0.30;;;21.70;56.50;;;;;;5087842;28;20211;-82
2023/06/04 06:44:54;;;;;;;0.40;0.40;;;21.80;56.50;;;;;;5080020;28;20199;-82
2023/06/04 06:47:22;;;;;;;1.45;0.73;;;21.80;56.60;;;;;;5070347;28;20293;-82
2023/06/04 06:49:52;;;;;;;0.73;0.43;;;21.90;56.40;;;;;;5078388;28;20277;-83
2023/06/04 06:52:21;;;;;;;0.73;0.40;;;21.90;56.30;;;;;;5075478;28;20186;-82
2023/06/04 06:54:50;;;;;;;1.75;0.85;;;22.00;56.00;;;;;;5072078;28;20247;-82
2023/06/04 06:57:18;;;;;;;2.42;0.30;;;22.00;55.90;;;;;;5079397;28;20643;-84
2023/06/04 06:59:46;;;;;;;1.55;1.05;;;22.00;55.80;;;;;;5071495;28;20202;-82
2023/06/04 07:02:15;;;;;;;1.00;0.38;;;22.10;55.70;;;;;;5074867;28;20214;-83
2023/06/04 07:04:43;;;;;;;0.52;0.20;;;22.20;55.70;;;;;;5074685;28;20595;-83
2023/06/04 07:07:13;;;;;;;0.40;0.40;;;22.30;55.80;;;;;;5072590;28;20248;-84
2023/06/04 07:09:45;;;;;;;0.85;0.45;;;22.30;55.90;;;;;;5070301;28;20201;-81
2023/06/04 07:12:13;;;;;;;0.47;0.32;;;22.40;55.40;;;;;;5079377;28;20230;-82
2023/06/04 07:14:43;;;;;;;0.20;0.20;;;22.40;55.50;;;;;;5089088;28;20544;-83
2023/06/04 07:17:11;;;;;;;0.30;0.30;;;22.50;55.30;;;;;;5074833;28;20218;-84
2023/06/04 07:19:39;;;;;;;0.40;0.40;;;22.70;55.50;;;;;;5081463;28;20244;-82
2023/06/04 07:22:08;;;;;;;0.20;0.20;;;22.80;55.20;;;;;;5086266;28;20236;-81
2023/06/04 07:24:38;;;;;;;0.40;0.40;;;22.90;55.20;;;;;;5079241;28;20195;-82
2023/06/04 07:27:12;;;;;;;0.63;0.35;;;23.00;54.80;;;;;;5079012;28;20187;-81
2023/06/04 07:29:41;;;;;;;0.52;0.52;;;23.10;54.60;;;;;;5076110;28;20199;-82
2023/06/04 07:32:09;;;;;;;1.08;0.55;;;23.10;52.60;;;;;;5074794;28;20193;-81
2023/06/04 07:34:39;;;;;;;2.58;0.82;;;23.20;53.10;;;;;;5086925;28;20706;-82
2023/06/04 07:37:09;;;;;;;0.70;0.68;;;23.30;53.10;;;;;;5081861;28;20190;-82
2023/06/04 07:39:40;;;;;;;0.20;0.20;;;23.40;53.10;;;;;;5082638;28;20194;-83
2023/06/04 07:42:08;;;;;;;2.83;0.75;;;23.50;53.40;;;;;;5079196;28;20201;-82
2023/06/04 07:44:38;;;;;;;0.63;0.50;;;23.50;52.70;;;;;;5096210;28;20197;-84
2023/06/04 07:47:07;;;;;;;0.22;0.22;;;23.70;53.00;;;;;;5084719;27;20194;-83
2023/06/04 07:49:35;;;;;;;0.20;0.20;;;23.70;52.50;;;;;;5096018;28;20347;-81
2023/06/04 07:52:18;;;;;;;0.40;0.40;;;23.80;50.90;;;;;;5082597;28;20192;-84
2023/06/04 07:54:47;;;;;;;0.93;0.47;;;23.90;51.50;;;;;;5081729;28;20662;-84
2023/06/04 07:57:16;;;;;;;0.43;0.40;;;24.00;50.10;;;;;;5088178;28;20224;-84
2023/06/04 07:59:44;;;;;;;0.82;0.70;;;24.00;48.70;;;;;;5092626;28;20247;-83
2023/06/04 08:02:14;;;;;;;0.25;0.25;;;24.10;49.70;;;;;;5078567;28;20249;-83
2023/06/04 08:04:43;;;;;;;0.60;0.60;;;24.30;49.70;;;;;;5084751;28;20194;-84
2023/06/04 08:07:11;;;;;;;8.25;0.57;;;24.30;48.90;;;;;;5077566;28;20199;-83
2023/06/04 08:09:40;;;;;;;0.82;0.55;;;24.40;47.90;;;;;;5085542;28;20186;-84
2023/06/04 08:12:10;;;;;;;1.15;0.30;;;24.60;48.60;;;;;;5082135;28;20244;-84
2023/06/04 08:14:38;;;;;;;0.65;0.50;;;24.60;48.40;;;;;;5078772;28;20201;-81
2023/06/04 08:17:07;;;;;;;0.25;0.25;;;24.70;48.80;;;;;;5080921;28;20185;-84
2023/06/04 08:19:35;;;;;;;0.30;0.30;;;24.70;48.50;;;;;;5079321;28;20194;-84
2023/06/04 08:22:06;;;;;;;0.43;0.40;;;24.70;48.20;;;;;;5083394;28;20318;-84
2023/06/04 08:24:34;;;;;;;0.20;0.20;;;24.60;47.50;;;;;;5080921;28;20200;-83
2023/06/04 08:27:03;;;;;;;0.50;0.50;;;24.70;47.90;;;;;;5073355;28;20658;-84
2023/06/04 08:29:32;;;;;;;0.90;0.40;;;24.70;47.40;;;;;;5077750;28;20289;-81
2023/06/04 08:32:01;;;;;;;0.45;0.30;;;24.80;47.80;;;;;;5080329;28;20204;-84
2023/06/04 08:34:29;;;;;;;0.40;0.40;;;24.80;47.80;;;;;;5075645;28;20623;-83
2023/06/04 08:36:58;;;;;;;0.30;0.30;;;24.80;47.60;;;;;;5082088;28;20655;-83
2023/06/04 08:39:26;;;;;;;0.75;0.35;;;24.90;47.80;;;;;;5075049;28;20198;-84
2023/06/04 08:42:01;;;;;;;1.10;0.75;;;24.90;47.20;;;;;;5081639;28;20557;-83
2023/06/04 08:44:32;;;;;;;0.70;0.70;;;24.90;47.30;;;;;;5077875;28;20193;-82
2023/06/04 08:47:04;;;;;;;0.20;0.20;;;25.00;47.70;;;;;;5078812;28;20349;-83
2023/06/04 08:49:36;;;;;;;0.38;0.38;;;25.00;47.60;;;;;;5077474;28;20591;-81
2023/06/04 08:52:05;;;;;;;0.30;0.30;;;24.90;46.10;;;;;;5071745;28;20285;-82
2023/06/04 08:54:34;;;;;;;1.02;0.50;;;25.00;46.20;;;;;;5087839;28;20205;-83
2023/06/04 08:57:03;;;;;;;0.60;0.60;;;25.00;46.20;;;;;;5073813;28;20191;-82
2023/06/04 08:59:33;;;;;;;0.65;0.50;;;25.00;45.60;;;;;;5078321;28;20204;-83
2023/06/04 09:02:03;;;;;;;1.17;0.60;;;25.10;46.00;;;;;;5075756;28;20214;-84
2023/06/04 09:04:33;;;;;;;0.40;0.40;;;25.20;45.50;;;;;;5078879;28;20202;-83
2023/06/04 09:07:03;;;;;;;0.82;0.55;;;25.10;44.40;;;;;;5074713;28;20206;-83
2023/06/04 09:09:32;;;;;;;0.20;0.20;;;25.10;44.40;;;;;;5071855;28;20198;-83
2023/06/04 09:12:04;;;;;;;1.23;0.68;;;25.20;44.80;;;;;;5084455;28;20380;-85
2023/06/04 09:14:34;;;;;;;1.55;0.93;;;25.20;44.40;;;;;;5075143;28;20291;-83
2023/06/04 09:17:02;;;;;;;0.63;0.30;;;25.30;44.50;;;;;;5074153;28;20190;-82
2023/06/04 09:19:31;;;;;;;0.30;0.30;;;25.30;43.60;;;;;;5087367;28;20196;-82
2023/06/04 09:22:02;;;;;;;0.30;0.30;;;25.20;43.40;;;;;;5077376;28;20735;-83
2023/06/04 09:24:40;;;;;;;0.77;0.43;;;25.30;43.30;;;;;;5093922;28;20189;-83
2023/06/04 09:27:13;;;;;;;0.75;0.45;;;25.40;44.10;;;;;;5080563;28;20367;-84
2023/06/04 09:29:51;;;;;;;0.28;0.28;;;25.50;44.30;;;;;;5072166;28;20202;-82
2023/06/04 09:32:23;;;;;;;1.13;0.55;;;25.50;43.80;;;;;;5085961;28;20201;-84
2023/06/04 09:34:52;;;;;;;0.22;0.22;;;25.60;43.30;;;;;;5080233;28;20202;-85
2023/06/04 09:37:22;;;;;;;0.20;0.20;;;25.60;43.10;;;;;;5081355;28;20191;-84
2023/06/04 09:39:54;;;;;;;0.43;0.43;;;25.70;43.10;;;;;;5083713;28;20210;-85
2023/06/04 09:42:23;;;;;;;0.80;0.40;;;25.80;43.30;;;;;;5075310;28;20257;-84
2023/06/04 09:44:53;;;;;;;0.30;0.30;;;25.80;43.20;;;;;;5088254;28;20205;-83
2023/06/04 09:47:22;;;;;;;0.38;0.38;;;25.80;43.30;;;;;;5080163;28;20201;-85
2023/06/04 09:49:52;;;;;;;0.40;0.38;;;25.90;43.10;;;;;;5082370;28;20190;-82
2023/06/04 09:52:21;;;;;;;0.17;0.17;;;25.90;43.30;;;;;;5083784;28;20733;-83
2023/06/04 09:54:50;;;;;;;0.25;0.25;;;25.80;42.30;;;;;;5079510;28;20201;-86
2023/06/04 09:57:19;;;;;;;0.45;0.45;;;25.80;42.50;;;;;;5076757;28;20579;-82
2023/06/04 09:59:51;;;;;;;0.40;0.40;;;25.80;42.80;;;;;;5089835;28;20193;-83
2023/06/04 10:02:22;;;;;;;3.75;0.38;;;25.90;43.40;;;;;;5081228;28;20224;-83
2023/06/04 10:04:54;;;;;;;0.38;0.38;;;25.90;43.40;;;;;;5072966;28;20285;-84
2023/06/04 10:07:24;;;;;;;0.40;0.35;;;26.00;43.80;;;;;;5087396;28;20189;-83
2023/06/04 10:09:53;;;;;;;1.13;0.60;;;25.90;43.30;;;;;;5076327;28;20216;-82
2023/06/04 10:12:27;;;;;;;0.22;0.22;;;25.90;43.00;;;;;;5070715;28;20198;-81
2023/06/04 10:14:59;;;;;;;0.80;0.50;;;25.90;43.10;;;;;;5077471;28;20187;-84
2023/06/04 10:17:30;;;;;;;0.52;0.50;;;25.90;43.30;;;;;;5083355;28;20197;-83
2023/06/04 10:20:00;;;;;;;0.30;0.30;;;26.00;43.90;;;;;;5069680;28;20248;-81
2023/06/04 10:22:30;;;;;;;0.50;0.30;;;26.00;44.10;;;;;;5087142;28;20235;-83
2023/06/04 10:25:00;;;;;;;0.77;0.77;;;26.10;44.30;;;;;;5083515;28;20205;-83
2023/06/04 10:27:28;;;;;;;3.78;0.80;;;26.10;44.20;;;;;;5084812;28;20665;-81
2023/06/04 10:29:57;;;;;;;0.25;0.25;;;26.10;44.10;;;;;;5076160;28;20193;-82
2023/06/04 10:32:30;;;;;;;0.40;0.40;;;26.20;44.50;;;;;;5083795;28;20200;-81
2023/06/04 10:34:58;;;;;;;0.47;0.30;;;26.20;44.40;;;;;;5078894;28;20236;-79
2023/06/04 10:37:29;;;;;;;0.47;0.47;;;26.30;44.50;;;;;;5071605;28;20255;-82
2023/06/04 10:39:59;;;;;;;0.35;0.32;;;26.30;44.00;;;;;;5085651;28;20195;-81
2023/06/04 10:42:27;;;;;;;0.30;0.20;;;26.20;43.20;;;;;;5073518;28;20228;-82
2023/06/04 10:44:56;;;;;;;0.20;0.20;;;26.30;43.90;;;;;;5088995;28;20194;-82
2023/06/04 10:47:30;;;;;;;0.68;0.65;;;26.30;43.80;;;;;;5080351;28;20197;-81
2023/06/04 10:50:09;;;;;;;0.30;0.30;;;26.30;43.40;;;;;;5074976;28;20281;-81
2023/06/04 10:52:38;;;;;;;1.65;0.32;;;26.40;44.00;;;;;;5075221;28;20198;-83
2023/06/04 10:55:08;;;;;;;2.50;0.93;;;26.50;44.40;;;;;;5082300;28;20194;-82
2023/06/04 10:57:37;;;;;;;0.20;0.20;;;26.50;44.30;;;;;;5087857;28;20194;-81
2023/06/04 11:00:10;;;;;;;0.30;0.30;;;26.60;44.30;;;;;;5082450;28;20243;-81
2023/06/04 11:02:50;;;;;;;0.50;0.30;;;26.60;44.30;;;;;;5079223;28;20670;-83
2023/06/04 11:05:20;;;;;;;0.30;0.30;;;26.60;43.10;;;;;;5088564;28;20223;-82
2023/06/04 11:07:50;;;;;;;0.63;0.40;;;26.70;43.60;;;;;;5076392;28;20187;-82
2023/06/04 11:10:19;;;;;;;0.40;0.40;;;26.70;43.30;;;;;;5073396;28;20706;-81
2023/06/04 11:12:50;;;;;;;0.50;0.50;;;26.60;42.90;;;;;;5082046;28;20196;-81
2023/06/04 11:15:18;;;;;;;0.47;0.32;;;26.70;43.20;;;;;;5080716;28;20215;-82
2023/06/04 11:17:53;;;;;;;1.20;1.00;;;26.70;43.20;;;;;;5080774;28;20543;-81
2023/06/04 11:20:24;;;;;;;0.20;0.20;;;26.70;43.40;;;;;;5094665;28;20193;-81
2023/06/04 11:22:55;;;;;;;0.30;0.30;;;26.80;43.40;;;;;;5078055;28;20229;-82
2023/06/04 11:25:25;;;;;;;2.97;0.50;;;26.90;43.30;;;;;;5086857;28;20225;-82
2023/06/04 11:27:55;;;;;;;1.17;0.60;;;26.90;43.00;;;;;;5076100;28;20558;-83
2023/06/04 11:30:24;;;;;;;0.20;0.20;;;26.80;42.60;;;;;;5086266;28;20281;-82
2023/06/04 11:33:01;;;;;;;3.28;0.68;;;26.80;42.20;;;;;;5076896;28;20561;-82
2023/06/04 11:35:32;;;;;;;0.55;0.38;;;26.90;42.90;;;;;;5086043;28;20198;-83
2023/06/04 11:38:00;;;;;;;0.65;0.50;;;27.00;43.20;;;;;;5077389;28;20197;-83
2023/06/04 11:40:28;;;;;;;0.70;0.50;;;27.10;43.40;;;;;;5091010;28;20202;-83
2023/06/04 11:42:57;;;;;;;0.32;0.32;;;27.10;42.90;;;;;;5082303;28;20550;-82
2023/06/04 11:45:26;;;;;;;3.05;1.30;;;27.20;43.20;;;;;;5085253;28;20202;-82
2023/06/04 11:47:55;;;;;;;6.68;3.28;;;27.20;43.50;;;;;;5084290;28;20200;-83
2023/06/04 11:50:28;;;;;;;4.55;1.15;;;27.10;43.50;;;;;;5080449;28;20573;-83
2023/06/04 11:52:57;;;;;;;1.30;0.73;;;27.20;43.60;;;;;;5073759;28;20195;-81
2023/06/04 11:55:27;;;;;;;2.65;1.48;;;27.20;43.60;;;;;;5088513;28;21669;-82
2023/06/04 11:57:55;;;;;;;2.05;1.30;;;27.10;42.80;;;;;;5083778;28;20197;-83
2023/06/04 12:00:24;;;;;;;0.38;0.38;;;27.10;43.00;;;;;;5083378;28;20189;-83
2023/06/04 12:02:54;;;;;;;0.60;0.60;;;27.20;43.10;;;;;;5079285;28;20643;-84
2023/06/04 12:05:25;;;;;;;0.55;0.50;;;27.40;43.50;;;;;;5090445;28;20222;-81
2023/06/04 12:07:53;;;;;;;0.80;0.63;;;27.40;43.40;;;;;;5082863;28;20647;-82
2023/06/04 12:10:24;;;;;;;0.30;0.30;;;27.50;43.60;;;;;;5088528;28;20193;-83
2023/06/04 12:12:55;;;;;;;0.30;0.30;;;27.50;43.70;;;;;;5074971;28;20218;-84
2023/06/04 12:15:24;;;;;;;0.93;0.82;;;27.60;43.70;;;;;;5079622;28;20197;-83
2023/06/04 12:17:54;;;;;;;0.10;0.10;;;27.60;43.50;;;;;;5090875;28;20242;-83
2023/06/04 12:20:34;;;;;;;0.32;0.32;;;27.60;42.80;;;;;;5097748;28;20197;-82
2023/06/04 12:23:03;;;;;;;0.40;0.40;;;27.70;43.30;;;;;;5076296;28;20240;-84
2023/06/04 12:25:34;;;;;;;1.13;0.43;;;27.70;43.40;;;;;;5088365;28;20693;-85
2023/06/04 12:28:04;;;;;;;0.60;0.60;;;27.80;43.60;;;;;;5081260;28;20205;-83
2023/06/04 12:30:40;;;;;;;1.27;0.55;;;27.80;43.10;;;;;;5082625;28;20268;-82
2023/06/04 12:33:11;;;;;;;1.05;0.47;;;27.80;43.10;;;;;;5076780;28;20185;-82
2023/06/04 12:35:39;;;;;;;2.53;0.75;;;27.90;43.50;;;;;;5087536;28;20190;-82
2023/06/04 12:38:09;;;;;;;0.20;0.20;;;27.90;43.20;;;;;;5086714;28;20285;-82
2023/06/04 12:40:40;;;;;;;0.63;0.20;;;27.90;43.10;;;;;;5081236;28;20281;-82
2023/06/04 12:43:08;;;;;;;0.35;0.35;;;27.90;42.90;;;;;;5080946;28;20582;-83
2023/06/04 12:45:37;;;;;;;0.40;0.40;;;28.00;43.20;;;;;;5087181;28;20278;-83
2023/06/04 12:48:05;;;;;;;0.40;0.40;;;28.00;43.00;;;;;;5081388;28;20239;-82
2023/06/04 12:50:35;;;;;;;0.50;0.50;;;28.00;43.00;;;;;;5080716;28;20194;-82
2023/06/04 12:53:03;;;;;;;0.73;0.30;;;28.00;43.00;;;;;;5085421;28;20674;-85
2023/06/04 12:55:31;;;;;;;0.40;0.40;;;27.90;42.40;;;;;;5090404;28;20287;-83
2023/06/04 12:58:01;;;;;;;0.63;0.50;;;27.90;42.70;;;;;;5073437;28;20252;-81
2023/06/04 13:00:30;;;;;;;0.45;0.40;;;27.90;42.60;;;;;;5092354;28;20558;-83